Dakota, MN

12:52 PM CDT on May 25, 2015 (GMT -0500)
La Crescent | | Change Station
CLOSE
Current Station
Personal Weather Station
Location: Dakota, MN
Elevation: 1236 ft
Nearby Weather Stations

Elev 1236 ft 43.86 °N, 91.32 °W | Updated 27 seconds ago

Overcast
Overcast
71.5 °F
Feels Like 73 °F
N
4.9
Wind Variable Wind from SW
Gusts 8.0 mph

Today
High -- | Low -- °F
--% Chance of Precip.
Yesterday
High -- | Low -- °F
Precip. -- in
5:30 AM 8:34 PM
Waxing Crescent, 50% visible
Pressure 29.74 in
Visibility 10.0 miles
Clouds Scattered Clouds 2700 ft
Mostly Cloudy 3700 ft
Heat Index 73 °F
Dew Point 64 °F
Humidity 77%
Rainfall 0.18 in
Snow Depth Not available.
UV 6 out of 12
Pollen .80 out of 12
Air Quality Not available.
Flu Activity Sporadic
SPECI KLSE 251722Z 24015G27KT 10SM SCT027 BKN037 24/16 A2974 RMK AO2 PK WND 21027/1714 T02390161

More Conditions Fewer Conditions

Pressure 29.74 in
Visibility 10.0 miles
Clouds Scattered Clouds 2700 ft
Mostly Cloudy 3700 ft
Heat Index 73 °F
Dew Point 64 °F
Humidity 77%
Rainfall 0.18 in
Snow Depth Not available.
UV 6 out of 12
Pollen .80 out of 12
Air Quality Not available.
Flu Activity Sporadic
SPECI KLSE 251722Z 24015G27KT 10SM SCT027 BKN037 24/16 A2974 RMK AO2 PK WND 21027/1714 T02390161

More Conditions Fewer Conditions

10-Day Weather Forecast

Almanac

Astronomy

May. 25, 2015 Rise Set
Actual Time
Civil Twilight
Nautical Twilight
Astronomical Twilight
Moon
Length of Visible Light
Length of Day
Tomorrow will be .
, % of the Moon is Illuminated

Today's Extremes

State Highs State Lows

Community

WunderPhotos

Upload Photos

1,824,071 photos uploaded!

WunderBlogs® & News

Nearby

Air Quality

  Air Quality AQ Index Pollutant
Not available.

Snow Depth

Station Depth Elevation

Earthquake Activity

City Distance Mag. Time & Date
Minimum magnitude displayed is 2.5.

Coastal Water Temperatures

Place Temperature

Stations

Nearby Weather Stations

Station Location Temp. Windchill Dew Point Humidity Wind Precip. Elev Updated Type